createdAt,value
2017-10-25T00:00:16.323Z,99.90
2017-10-25T00:02:43.867Z,99.90
2017-10-25T00:05:11.429Z,99.90
2017-10-25T00:07:38.964Z,99.90
2017-10-25T00:10:06.517Z,99.90
2017-10-25T00:12:34.819Z,99.90
2017-10-25T00:15:02.381Z,99.90
2017-10-25T00:17:29.933Z,99.90
2017-10-25T00:19:57.504Z,99.90
2017-10-25T00:22:25.053Z,99.90
2017-10-25T00:24:52.630Z,99.90
2017-10-25T00:27:20.187Z,99.90
2017-10-25T00:29:47.740Z,99.90
2017-10-25T00:32:15.297Z,99.90
2017-10-25T00:34:42.843Z,99.90
2017-10-25T00:37:10.397Z,99.90
2017-10-25T00:39:38.704Z,99.90
2017-10-25T00:42:06.254Z,99.90
2017-10-25T00:44:33.781Z,99.90
2017-10-25T00:47:02.096Z,99.90
2017-10-25T00:49:29.633Z,99.90
2017-10-25T00:51:57.182Z,99.90
2017-10-25T00:54:25.477Z,99.90
2017-10-25T00:56:53.004Z,99.90
2017-10-25T00:59:21.333Z,99.90
2017-10-25T01:01:48.854Z,99.90
2017-10-25T01:04:17.188Z,99.90
2017-10-25T01:06:44.709Z,99.90
2017-10-25T01:09:12.250Z,99.90
2017-10-25T01:11:40.580Z,99.90
2017-10-25T01:14:08.105Z,99.90
2017-10-25T01:16:35.666Z,99.90
2017-10-25T01:19:03.190Z,99.90
2017-10-25T01:21:30.738Z,99.90
2017-10-25T01:23:58.304Z,99.90
2017-10-25T01:26:25.857Z,99.90
2017-10-25T01:28:53.397Z,99.90
2017-10-25T01:31:20.953Z,99.90
2017-10-25T01:33:48.493Z,99.90
2017-10-25T01:36:16.030Z,99.90
2017-10-25T01:38:43.591Z,99.90
2017-10-25T01:41:11.138Z,99.90
2017-10-25T01:43:41.118Z,99.90
2017-10-25T01:46:08.649Z,99.90
2017-10-25T01:48:36.209Z,99.90
2017-10-25T01:51:03.744Z,99.90
2017-10-25T01:53:31.289Z,99.90
2017-10-25T01:55:59.596Z,99.90
2017-10-25T01:58:27.146Z,99.90
2017-10-25T02:00:54.677Z,99.90
2017-10-25T02:03:22.224Z,99.90
2017-10-25T02:05:49.762Z,99.90
2017-10-25T02:08:17.411Z,99.90
2017-10-25T02:10:44.974Z,99.90
2017-10-25T02:13:12.530Z,99.90
2017-10-25T02:15:40.081Z,99.90
2017-10-25T02:18:07.753Z,99.90
2017-10-25T02:20:35.298Z,99.90
2017-10-25T02:23:02.825Z,99.90
2017-10-25T02:25:31.152Z,99.90
2017-10-25T02:27:58.673Z,99.90
2017-10-25T02:30:26.987Z,99.90
2017-10-25T02:32:55.304Z,99.90
2017-10-25T02:35:22.884Z,99.90
2017-10-25T02:37:50.417Z,99.90
2017-10-25T02:40:18.730Z,99.90
2017-10-25T02:42:46.261Z,99.90
2017-10-25T02:45:13.820Z,99.90
2017-10-25T02:47:41.361Z,99.90
2017-10-25T02:50:09.681Z,99.90
2017-10-25T02:52:37.237Z,99.90
2017-10-25T02:55:04.770Z,99.90
2017-10-25T02:57:32.331Z,99.90
2017-10-25T02:59:59.918Z,99.90
2017-10-25T03:02:27.460Z,99.90
2017-10-25T03:04:55.014Z,99.90
2017-10-25T03:07:22.598Z,99.90
2017-10-25T03:09:50.132Z,99.90
2017-10-25T03:12:17.686Z,99.90
2017-10-25T03:14:46.001Z,99.90
2017-10-25T03:17:14.308Z,99.90
2017-10-25T03:19:41.860Z,99.90
2017-10-25T03:22:09.410Z,99.90
2017-10-25T03:24:36.951Z,99.90
2017-10-25T03:27:05.251Z,99.90
2017-10-25T03:29:32.793Z,99.90
2017-10-25T03:32:00.322Z,99.90
2017-10-25T03:34:27.865Z,99.90
2017-10-25T03:36:55.396Z,99.90
2017-10-25T03:39:22.945Z,99.90
2017-10-25T03:41:50.475Z,99.90
2017-10-25T03:44:18.062Z,99.90
2017-10-25T03:46:46.355Z,99.90
2017-10-25T03:49:13.896Z,99.90
2017-10-25T03:51:41.453Z,99.90
2017-10-25T03:54:08.992Z,99.90
2017-10-25T03:56:36.536Z,99.90
2017-10-25T03:59:04.846Z,99.90
2017-10-25T04:01:32.401Z,99.90
2017-10-25T04:03:59.944Z,99.90
2017-10-25T04:06:27.527Z,99.90
2017-10-25T04:08:55.054Z,99.90
2017-10-25T04:11:23.775Z,99.90
2017-10-25T04:13:51.301Z,99.90
2017-10-25T04:16:19.619Z,99.90
2017-10-25T04:18:47.145Z,99.90
2017-10-25T04:21:14.709Z,99.90
2017-10-25T04:23:43.026Z,99.90
2017-10-25T04:26:11.105Z,99.90
2017-10-25T04:28:38.644Z,99.90
2017-10-25T04:31:07.422Z,99.90
2017-10-25T04:33:35.746Z,99.90
2017-10-25T04:36:03.293Z,99.90
2017-10-25T04:38:30.846Z,99.90
2017-10-25T04:40:58.416Z,99.90
2017-10-25T04:43:25.982Z,99.90
2017-10-25T04:45:53.500Z,99.90
2017-10-25T04:48:21.057Z,99.90
2017-10-25T04:50:48.583Z,99.90
2017-10-25T04:53:16.133Z,99.90
2017-10-25T04:55:43.668Z,99.90
2017-10-25T04:58:11.222Z,99.90
2017-10-25T05:00:38.770Z,99.90
2017-10-25T05:03:06.307Z,99.90
2017-10-25T05:05:33.868Z,99.90
2017-10-25T05:08:01.408Z,99.90
2017-10-25T05:10:29.719Z,99.90
2017-10-25T05:12:57.248Z,99.90
2017-10-25T05:15:24.787Z,99.90
2017-10-25T05:17:52.351Z,99.90
2017-10-25T05:20:19.878Z,99.90
2017-10-25T05:22:47.446Z,99.90
2017-10-25T05:25:14.977Z,99.90
2017-10-25T05:27:42.525Z,99.90
2017-10-25T05:30:10.068Z,99.90
2017-10-25T05:32:37.608Z,99.90
2017-10-25T05:35:05.138Z,99.90
2017-10-25T05:37:33.445Z,99.90
2017-10-25T05:40:00.973Z,99.90
2017-10-25T05:42:29.309Z,99.90
2017-10-25T05:44:56.877Z,99.90
2017-10-25T05:47:24.400Z,99.90
2017-10-25T05:49:51.952Z,99.90
2017-10-25T05:52:19.481Z,99.90
2017-10-25T05:54:47.032Z,99.90
2017-10-25T05:57:14.713Z,99.90
2017-10-25T05:59:43.027Z,99.90
2017-10-25T06:02:10.546Z,99.90
2017-10-25T06:04:38.861Z,99.90
2017-10-25T06:07:06.388Z,99.90
2017-10-25T06:09:34.729Z,99.90
2017-10-25T06:12:02.262Z,99.90
2017-10-25T06:14:29.796Z,99.90
2017-10-25T06:16:58.204Z,99.90
2017-10-25T06:19:25.749Z,99.90
2017-10-25T06:21:53.308Z,99.90
2017-10-25T06:24:20.861Z,99.90
2017-10-25T06:26:48.421Z,99.90
2017-10-25T06:29:15.950Z,99.90
2017-10-25T06:31:43.500Z,99.90
2017-10-25T06:34:11.029Z,99.90
2017-10-25T06:36:38.570Z,99.90
2017-10-25T06:39:06.105Z,99.90
2017-10-25T06:41:34.401Z,99.90
2017-10-25T06:44:01.958Z,99.90
2017-10-25T06:46:29.481Z,99.90
2017-10-25T06:48:57.025Z,99.90
2017-10-25T06:51:24.561Z,99.90
2017-10-25T06:53:52.125Z,99.90
2017-10-25T06:56:19.661Z,99.90
2017-10-25T06:58:47.204Z,99.90
2017-10-25T07:01:15.489Z,99.90
2017-10-25T07:03:43.042Z,99.90
2017-10-25T07:06:11.449Z,99.90
2017-10-25T07:08:39.012Z,99.90
2017-10-25T07:11:06.556Z,99.90
2017-10-25T07:13:34.112Z,99.90
2017-10-25T07:16:01.665Z,99.90
2017-10-25T07:18:29.209Z,99.90
2017-10-25T07:20:57.561Z,99.90
2017-10-25T07:23:25.094Z,99.90
2017-10-25T07:25:52.646Z,99.90
2017-10-25T07:28:20.177Z,99.90
2017-10-25T07:30:47.710Z,99.90
2017-10-25T07:33:15.257Z,99.90
2017-10-25T07:35:42.889Z,99.90
2017-10-25T07:38:10.463Z,99.90
2017-10-25T07:40:38.005Z,99.90
2017-10-25T07:43:05.529Z,99.90
2017-10-25T07:45:33.858Z,99.90
2017-10-25T07:48:01.414Z,99.90
2017-10-25T07:50:28.944Z,99.90
2017-10-25T07:52:56.509Z,99.90
2017-10-25T07:55:24.032Z,99.90
2017-10-25T07:57:51.585Z,99.90
2017-10-25T08:00:19.113Z,99.90
2017-10-25T08:02:46.669Z,99.90
2017-10-25T08:05:14.205Z,99.90
2017-10-25T08:07:41.753Z,99.90
2017-10-25T08:10:09.289Z,99.90
2017-10-25T08:12:36.845Z,99.90
2017-10-25T08:15:04.373Z,99.90
2017-10-25T08:17:31.921Z,99.90
2017-10-25T08:19:59.464Z,99.90
2017-10-25T08:22:27.029Z,99.90
2017-10-25T08:24:54.558Z,99.90
2017-10-25T08:27:22.877Z,99.90
2017-10-25T08:29:50.420Z,99.90
2017-10-25T08:32:18.002Z,99.90
2017-10-25T08:34:45.570Z,99.90
2017-10-25T08:37:13.133Z,99.90
2017-10-25T08:39:40.698Z,99.90
2017-10-25T08:42:09.054Z,99.90
2017-10-25T08:44:36.616Z,99.90
2017-10-25T08:47:04.197Z,99.90
2017-10-25T08:49:31.715Z,99.90
2017-10-25T08:51:59.256Z,99.90
2017-10-25T08:54:27.617Z,99.90
2017-10-25T08:56:55.945Z,99.90
2017-10-25T08:59:23.497Z,99.90
2017-10-25T09:01:51.041Z,99.90
2017-10-25T09:04:19.381Z,99.90
2017-10-25T09:06:47.689Z,99.90
2017-10-25T09:09:15.995Z,99.90
2017-10-25T09:11:43.555Z,99.90
2017-10-25T09:14:11.086Z,99.90
2017-10-25T09:16:39.395Z,99.90
2017-10-25T09:19:06.918Z,99.90
2017-10-25T09:21:35.238Z,99.90
2017-10-25T09:24:02.771Z,99.90
2017-10-25T09:26:30.329Z,99.90
2017-10-25T09:28:58.621Z,99.90
2017-10-25T09:31:26.145Z,99.90
2017-10-25T09:33:54.464Z,99.90
2017-10-25T09:36:22.019Z,99.90
2017-10-25T09:38:49.544Z,99.90
2017-10-25T09:41:17.978Z,99.90
2017-10-25T09:43:45.513Z,99.90
2017-10-25T09:46:13.085Z,99.90
2017-10-25T09:48:40.626Z,99.90
2017-10-25T09:51:08.173Z,99.90
2017-10-25T09:53:35.726Z,99.90
2017-10-25T09:56:04.029Z,99.90
2017-10-25T09:58:31.577Z,99.90
2017-10-25T10:00:59.872Z,99.90
2017-10-25T10:03:27.420Z,99.90
2017-10-25T10:05:54.953Z,99.90
2017-10-25T10:08:23.269Z,99.90
2017-10-25T10:10:50.794Z,99.90
2017-10-25T10:13:19.112Z,99.90
2017-10-25T10:15:46.641Z,99.90
2017-10-25T10:18:14.952Z,99.90
2017-10-25T10:20:42.481Z,99.90
2017-10-25T10:23:10.042Z,99.90
2017-10-25T10:25:37.579Z,99.90
2017-10-25T10:28:05.110Z,99.90
2017-10-25T10:30:32.657Z,99.90
2017-10-25T10:33:00.185Z,99.90
2017-10-25T10:35:27.732Z,99.90
2017-10-25T10:37:56.030Z,99.90
2017-10-25T10:40:23.588Z,99.90
2017-10-25T10:42:51.114Z,99.90
2017-10-25T10:45:19.424Z,99.90
2017-10-25T10:47:46.953Z,99.90
2017-10-25T10:50:15.269Z,97.00
2017-10-25T10:52:42.800Z,96.70
2017-10-25T10:55:11.119Z,92.60
2017-10-25T10:57:38.644Z,92.50
2017-10-25T11:00:06.960Z,88.30
2017-10-25T11:02:34.493Z,88.20
2017-10-25T11:05:02.067Z,88.40
2017-10-25T11:07:29.598Z,91.70
2017-10-25T11:09:58.006Z,89.60
2017-10-25T11:12:25.549Z,89.60
2017-10-25T11:14:53.095Z,90.00
2017-10-25T11:17:21.393Z,84.80
2017-10-25T11:19:48.927Z,84.70
2017-10-25T11:22:17.279Z,72.80
2017-10-25T11:24:44.810Z,72.90
2017-10-25T11:27:12.338Z,79.30
2017-10-25T11:29:39.893Z,81.90
2017-10-25T11:32:08.201Z,77.80
2017-10-25T11:34:35.740Z,77.70
2017-10-25T11:37:03.289Z,82.10
2017-10-25T11:39:31.593Z,80.40
2017-10-25T11:41:59.121Z,80.40
2017-10-25T11:44:27.430Z,77.10
2017-10-25T11:46:54.966Z,77.10
2017-10-25T11:49:22.502Z,75.80
2017-10-25T11:51:50.148Z,74.80
2017-10-25T11:54:17.690Z,75.40
2017-10-25T11:56:45.440Z,73.70
2017-10-25T11:59:13.098Z,73.70
2017-10-25T12:01:40.630Z,72.90
2017-10-25T12:04:08.185Z,72.30
2017-10-25T12:06:35.742Z,72.70
2017-10-25T12:09:03.298Z,73.50
2017-10-25T12:11:30.827Z,73.50
2017-10-25T12:13:58.358Z,75.90
2017-10-25T12:16:26.694Z,74.10
2017-10-25T12:18:54.221Z,74.10
2017-10-25T12:21:21.786Z,73.40
2017-10-25T12:23:49.318Z,72.90
2017-10-25T12:26:17.642Z,68.00
2017-10-25T12:28:45.176Z,67.90
2017-10-25T12:31:12.721Z,70.20
2017-10-25T12:33:41.005Z,70.60
2017-10-25T12:36:08.554Z,70.60
2017-10-25T12:38:36.842Z,72.10
2017-10-25T12:41:04.368Z,72.00
2017-10-25T12:43:31.924Z,70.50
2017-10-25T12:45:59.482Z,70.00
2017-10-25T12:48:27.035Z,70.60
2017-10-25T12:50:54.553Z,73.10
2017-10-25T12:53:22.099Z,73.40
2017-10-25T12:55:49.627Z,75.90
2017-10-25T12:58:17.183Z,77.50
2017-10-25T13:00:44.723Z,77.70
2017-10-25T13:03:13.141Z,77.50
2017-10-25T13:05:40.669Z,77.50
2017-10-25T13:08:08.969Z,79.00
2017-10-25T13:10:44.160Z,79.00
2017-10-25T13:13:16.448Z,77.80
2017-10-25T13:15:55.360Z,82.50
2017-10-25T13:18:24.689Z,82.40
2017-10-25T13:20:52.221Z,83.60
2017-10-25T13:23:19.748Z,87.20
2017-10-25T13:25:47.294Z,88.70
2017-10-25T13:28:14.849Z,90.50
2017-10-25T13:30:42.394Z,92.40
2017-10-25T13:33:09.958Z,94.10
2017-10-25T13:35:37.486Z,96.00
2017-10-25T13:38:05.033Z,97.60
2017-10-25T13:40:34.090Z,99.90
2017-10-25T13:43:01.642Z,99.90
2017-10-25T13:45:29.184Z,99.90
2017-10-25T13:47:56.737Z,99.90
2017-10-25T13:50:25.032Z,99.90
2017-10-25T13:52:52.580Z,99.90
2017-10-25T13:55:20.105Z,99.90
2017-10-25T13:57:49.137Z,99.90
2017-10-25T14:00:16.697Z,99.90
2017-10-25T14:02:44.241Z,99.90
2017-10-25T14:05:12.525Z,99.90
2017-10-25T14:07:40.820Z,99.90
2017-10-25T14:10:08.369Z,99.90
2017-10-25T14:12:35.905Z,99.90
2017-10-25T14:15:04.226Z,99.90
2017-10-25T14:17:31.765Z,99.90
2017-10-25T14:19:59.323Z,99.90
2017-10-25T14:22:26.867Z,99.90
2017-10-25T14:24:55.192Z,99.90
2017-10-25T14:27:34.741Z,99.90
2017-10-25T14:30:02.313Z,99.90
2017-10-25T14:32:29.857Z,99.90
2017-10-25T14:34:57.414Z,99.90
2017-10-25T14:37:24.953Z,99.90
2017-10-25T14:39:52.504Z,99.90
2017-10-25T14:42:20.058Z,99.90
2017-10-25T14:44:48.358Z,99.90
2017-10-25T14:47:15.914Z,99.90
2017-10-25T14:49:43.439Z,99.90
2017-10-25T14:52:11.751Z,99.90
2017-10-25T14:54:39.281Z,99.90
2017-10-25T14:57:07.589Z,99.90
2017-10-25T14:59:35.109Z,99.90
2017-10-25T15:02:03.425Z,99.90
2017-10-25T15:04:30.981Z,99.90
2017-10-25T15:06:58.508Z,99.90
2017-10-25T15:09:26.825Z,99.90
2017-10-25T15:11:54.373Z,99.90
2017-10-25T15:14:21.918Z,99.90
2017-10-25T15:16:50.210Z,99.90
2017-10-25T15:19:17.782Z,99.90
2017-10-25T15:21:45.322Z,99.90
2017-10-25T15:24:12.868Z,99.90
2017-10-25T15:26:41.174Z,99.90
2017-10-25T15:29:08.721Z,99.90
2017-10-25T15:31:36.277Z,99.90
2017-10-25T15:34:03.832Z,99.90
2017-10-25T15:36:31.369Z,99.90
2017-10-25T15:38:58.901Z,99.90
2017-10-25T15:41:26.452Z,99.90
2017-10-25T15:43:53.990Z,99.90
2017-10-25T15:46:22.314Z,99.90
2017-10-25T15:48:49.852Z,99.90
2017-10-25T15:51:17.413Z,99.90
2017-10-25T15:53:45.173Z,99.90
2017-10-25T15:56:12.731Z,99.90
2017-10-25T15:58:40.277Z,99.90
2017-10-25T16:01:07.809Z,99.90
2017-10-25T16:03:35.369Z,99.90
2017-10-25T16:06:03.019Z,99.90
2017-10-25T16:08:30.547Z,99.90
2017-10-25T16:10:58.111Z,99.90
2017-10-25T16:13:25.646Z,99.90
2017-10-25T16:15:53.213Z,99.90
2017-10-25T16:18:21.514Z,99.90
2017-10-25T16:20:49.068Z,99.90
2017-10-25T16:23:16.598Z,99.90
2017-10-25T16:25:44.823Z,99.90
2017-10-25T16:28:12.378Z,99.90
2017-10-25T16:30:39.934Z,99.90
2017-10-25T16:33:07.502Z,99.90
2017-10-25T16:35:35.066Z,99.90
2017-10-25T16:38:02.620Z,99.90
2017-10-25T16:40:30.173Z,99.90
2017-10-25T16:42:57.701Z,99.90
2017-10-25T16:45:25.238Z,99.90
2017-10-25T16:47:53.589Z,99.90
2017-10-25T16:50:21.137Z,99.90
2017-10-25T16:52:48.683Z,99.90
2017-10-25T16:55:16.208Z,99.90
2017-10-25T16:57:44.526Z,99.90
2017-10-25T17:00:12.052Z,99.90
2017-10-25T17:02:40.380Z,99.90
2017-10-25T17:05:07.935Z,99.90
2017-10-25T17:07:35.504Z,99.90
2017-10-25T17:10:03.036Z,99.90
2017-10-25T17:12:30.596Z,99.90
2017-10-25T17:14:58.153Z,99.90
2017-10-25T17:17:25.685Z,99.90
2017-10-25T17:19:53.270Z,99.90
2017-10-25T17:22:20.809Z,99.90
2017-10-25T17:24:48.362Z,99.90
2017-10-25T17:27:15.902Z,99.90
2017-10-25T17:29:43.458Z,99.90
2017-10-25T17:32:10.996Z,99.90
2017-10-25T17:34:39.302Z,99.90
2017-10-25T17:37:06.869Z,99.90
2017-10-25T17:39:34.418Z,99.90
2017-10-25T17:42:02.740Z,99.90
2017-10-25T17:44:30.334Z,99.90
2017-10-25T17:46:58.674Z,99.90
2017-10-25T17:49:26.324Z,99.90
2017-10-25T17:51:53.858Z,99.90
2017-10-25T17:54:22.184Z,99.90
2017-10-25T17:56:50.517Z,99.90
2017-10-25T17:59:18.082Z,99.90
2017-10-25T18:01:46.223Z,99.90
2017-10-25T18:04:13.788Z,99.90
2017-10-25T18:06:41.342Z,99.90
2017-10-25T18:09:09.653Z,99.90
2017-10-25T18:11:37.196Z,99.90
2017-10-25T18:14:04.753Z,99.90
2017-10-25T18:16:32.326Z,99.90
2017-10-25T18:18:59.892Z,99.90
2017-10-25T18:21:28.236Z,99.90
2017-10-25T18:23:55.788Z,99.90
2017-10-25T18:26:23.337Z,99.90
2017-10-25T18:28:50.893Z,99.90
2017-10-25T18:31:18.425Z,99.90
2017-10-25T18:33:45.979Z,99.90
2017-10-25T18:36:13.554Z,99.90
2017-10-25T18:38:41.097Z,99.90
2017-10-25T18:41:08.660Z,99.90
2017-10-25T18:43:36.216Z,99.90
2017-10-25T18:46:03.747Z,99.90
2017-10-25T18:48:32.093Z,99.90
2017-10-25T18:50:59.630Z,99.90
2017-10-25T18:53:27.208Z,99.90
2017-10-25T18:55:54.750Z,99.90
2017-10-25T18:58:22.318Z,99.90
2017-10-25T19:00:49.857Z,99.90
2017-10-25T19:03:17.433Z,99.90
2017-10-25T19:05:44.981Z,99.90
2017-10-25T19:08:12.540Z,99.90
2017-10-25T19:10:40.089Z,99.90
2017-10-25T19:13:07.636Z,99.90
2017-10-25T19:15:35.218Z,99.90
2017-10-25T19:18:02.758Z,99.90
2017-10-25T19:20:30.332Z,99.90
2017-10-25T19:22:57.978Z,99.90
2017-10-25T19:25:25.530Z,99.90
2017-10-25T19:27:53.076Z,99.90
2017-10-25T19:30:21.418Z,99.90
2017-10-25T19:32:48.958Z,99.90
2017-10-25T19:35:16.525Z,99.90
2017-10-25T19:37:44.090Z,99.90
2017-10-25T19:40:11.638Z,99.90
2017-10-25T19:42:39.201Z,99.90
2017-10-25T19:45:06.769Z,99.90
2017-10-25T19:47:34.328Z,99.90
2017-10-25T19:50:01.876Z,99.90
2017-10-25T19:52:29.453Z,99.90
2017-10-25T19:54:57.018Z,99.90
2017-10-25T19:57:24.625Z,99.90
2017-10-25T19:59:52.227Z,99.90
2017-10-25T20:02:19.793Z,99.90
2017-10-25T20:04:47.365Z,99.90
2017-10-25T20:07:14.946Z,99.90
2017-10-25T20:09:42.521Z,99.90
2017-10-25T20:12:10.857Z,99.90
2017-10-25T20:14:38.465Z,99.90
2017-10-25T20:17:06.038Z,99.90
2017-10-25T20:19:33.599Z,99.90
2017-10-25T20:22:01.159Z,99.90
2017-10-25T20:24:30.672Z,99.90
2017-10-25T20:26:58.230Z,99.90
2017-10-25T20:29:26.075Z,99.90
2017-10-25T20:31:53.629Z,99.90
2017-10-25T20:34:21.178Z,99.90
2017-10-25T20:36:48.735Z,99.90
2017-10-25T20:39:16.291Z,99.90
2017-10-25T20:41:44.157Z,99.90
2017-10-25T20:44:13.196Z,99.90
2017-10-25T20:46:41.069Z,99.90
2017-10-25T20:49:08.605Z,99.90
2017-10-25T20:51:36.164Z,99.90
2017-10-25T20:54:03.705Z,99.90
2017-10-25T20:56:32.030Z,99.90
2017-10-25T20:58:59.648Z,99.90
2017-10-25T21:01:27.218Z,99.90
2017-10-25T21:03:54.790Z,99.90
2017-10-25T21:06:22.367Z,99.90
2017-10-25T21:08:50.708Z,99.90
2017-10-25T21:11:19.751Z,99.90
2017-10-25T21:13:47.317Z,99.90
2017-10-25T21:16:14.873Z,99.90
2017-10-25T21:18:42.775Z,99.90
2017-10-25T21:21:10.334Z,99.90
2017-10-25T21:23:37.911Z,99.90
2017-10-25T21:26:05.458Z,99.90
2017-10-25T21:28:33.031Z,99.90
2017-10-25T21:31:00.576Z,99.90
2017-10-25T21:33:28.140Z,99.90
2017-10-25T21:35:55.701Z,99.90
2017-10-25T21:38:23.262Z,99.90
2017-10-25T21:40:50.901Z,99.90
2017-10-25T21:43:18.459Z,99.90
2017-10-25T21:45:46.026Z,99.90
2017-10-25T21:48:13.567Z,99.90
2017-10-25T21:50:41.148Z,99.90
2017-10-25T21:53:08.700Z,99.90
2017-10-25T21:55:36.242Z,99.90
2017-10-25T21:58:03.806Z,99.90
2017-10-25T22:00:31.358Z,99.90
2017-10-25T22:02:58.960Z,99.90
2017-10-25T22:05:26.512Z,99.90
2017-10-25T22:07:54.061Z,99.90
2017-10-25T22:10:21.614Z,99.90
2017-10-25T22:12:49.174Z,99.90
2017-10-25T22:15:16.717Z,99.90
2017-10-25T22:17:44.299Z,99.90
2017-10-25T22:20:11.843Z,99.90
2017-10-25T22:22:39.405Z,99.90
2017-10-25T22:25:06.984Z,99.90
2017-10-25T22:27:34.544Z,99.90
2017-10-25T22:30:02.096Z,99.90
2017-10-25T22:32:29.660Z,99.90
2017-10-25T22:34:57.210Z,99.90
2017-10-25T22:37:24.782Z,99.90
2017-10-25T22:39:52.350Z,99.90
2017-10-25T22:42:19.897Z,99.90
2017-10-25T22:44:47.441Z,99.90
2017-10-25T22:47:15.005Z,99.90
2017-10-25T22:49:42.549Z,99.90
2017-10-25T22:52:10.125Z,99.90
2017-10-25T22:54:37.673Z,99.90
2017-10-25T22:57:05.229Z,99.90
2017-10-25T22:59:32.764Z,99.90
2017-10-25T23:02:00.328Z,99.90
2017-10-25T23:04:27.896Z,99.90
2017-10-25T23:06:56.206Z,99.90
2017-10-25T23:09:23.782Z,99.90
2017-10-25T23:11:51.330Z,99.90
2017-10-25T23:14:18.902Z,99.90
2017-10-25T23:16:46.453Z,99.90
2017-10-25T23:19:14.037Z,99.90
2017-10-25T23:21:41.577Z,99.90
2017-10-25T23:24:09.146Z,99.90
2017-10-25T23:26:36.710Z,99.90
2017-10-25T23:29:04.278Z,99.90
2017-10-25T23:31:31.821Z,99.90
2017-10-25T23:33:59.358Z,99.90
2017-10-25T23:36:26.928Z,99.90
2017-10-25T23:38:54.469Z,99.90
2017-10-25T23:41:22.025Z,99.90
2017-10-25T23:43:49.564Z,99.90
2017-10-25T23:46:17.914Z,99.90
2017-10-25T23:48:45.481Z,99.90
2017-10-25T23:51:13.830Z,99.90
2017-10-25T23:53:41.401Z,99.90
2017-10-25T23:56:08.974Z,99.90
2017-10-25T23:58:36.524Z,99.90
